sensor_id;sensor_type;location;lat;lon;timestamp;temperature;humidity
33023;DHT22;19390;51.460;5.710;2023-05-16T00:01:04;10.10;99.90
33023;DHT22;19390;51.460;5.710;2023-05-16T00:03:30;10.00;99.90
33023;DHT22;19390;51.460;5.710;2023-05-16T00:05:55;10.00;99.90
33023;DHT22;19390;51.460;5.710;2023-05-16T00:08:22;10.00;99.90
33023;DHT22;19390;51.460;5.710;2023-05-16T00:10:47;10.00;99.90
33023;DHT22;19390;51.460;5.710;2023-05-16T00:13:13;9.90;99.90
33023;DHT22;19390;51.460;5.710;2023-05-16T00:15:39;9.80;99.90
33023;DHT22;19390;51.460;5.710;2023-05-16T00:18:05;9.80;99.90
33023;DHT22;19390;51.460;5.710;2023-05-16T00:20:30;9.70;99.90
33023;DHT22;19390;51.460;5.710;2023-05-16T00:22:56;9.70;99.90
33023;DHT22;19390;51.460;5.710;2023-05-16T00:25:25;9.70;99.90
33023;DHT22;19390;51.460;5.710;2023-05-16T00:27:51;9.60;99.90
33023;DHT22;19390;51.460;5.710;2023-05-16T00:30:16;9.50;99.90
33023;DHT22;19390;51.460;5.710;2023-05-16T00:32:42;9.50;99.90
33023;DHT22;19390;51.460;5.710;2023-05-16T00:35:08;9.50;99.90
33023;DHT22;19390;51.460;5.710;2023-05-16T00:37:36;9.50;99.90
33023;DHT22;19390;51.460;5.710;2023-05-16T00:40:02;9.60;99.90
33023;DHT22;19390;51.460;5.710;2023-05-16T00:42:29;9.60;99.90
33023;DHT22;19390;51.460;5.710;2023-05-16T00:44:55;9.60;99.90
33023;DHT22;19390;51.460;5.710;2023-05-16T00:47:21;9.70;99.90
33023;DHT22;19390;51.460;5.710;2023-05-16T00:49:46;9.60;99.90
33023;DHT22;19390;51.460;5.710;2023-05-16T00:52:12;9.70;99.90
33023;DHT22;19390;51.460;5.710;2023-05-16T00:54:38;9.70;99.90
33023;DHT22;19390;51.460;5.710;2023-05-16T00:57:04;9.70;99.90
33023;DHT22;19390;51.460;5.710;2023-05-16T00:59:31;9.60;99.90
33023;DHT22;19390;51.460;5.710;2023-05-16T01:01:57;9.70;99.90
33023;DHT22;19390;51.460;5.710;2023-05-16T01:04:23;9.70;99.90
33023;DHT22;19390;51.460;5.710;2023-05-16T01:06:49;9.70;99.90
33023;DHT22;19390;51.460;5.710;2023-05-16T01:09:15;9.70;99.90
33023;DHT22;19390;51.460;5.710;2023-05-16T01:12:06;9.70;99.90
33023;DHT22;19390;51.460;5.710;2023-05-16T01:20:01;9.70;99.90
33023;DHT22;19390;51.460;5.710;2023-05-16T01:22:51;9.70;99.90
33023;DHT22;19390;51.460;5.710;2023-05-16T01:28:14;9.40;99.90
33023;DHT22;19390;51.460;5.710;2023-05-16T01:30:40;9.40;99.90
33023;DHT22;19390;51.460;5.710;2023-05-16T01:33:07;9.30;99.90
33023;DHT22;19390;51.460;5.710;2023-05-16T01:35:33;9.20;99.90
33023;DHT22;19390;51.460;5.710;2023-05-16T01:38:10;9.10;99.90
33023;DHT22;19390;51.460;5.710;2023-05-16T01:40:54;9.10;99.90
33023;DHT22;19390;51.460;5.710;2023-05-16T01:43:48;9.00;99.90
33023;DHT22;19390;51.460;5.710;2023-05-16T01:46:20;9.00;99.90
33023;DHT22;19390;51.460;5.710;2023-05-16T01:51:41;8.90;99.90
33023;DHT22;19390;51.460;5.710;2023-05-16T01:54:11;8.70;99.90
33023;DHT22;19390;51.460;5.710;2023-05-16T01:56:37;8.60;99.90
33023;DHT22;19390;51.460;5.710;2023-05-16T01:59:04;8.60;99.90
33023;DHT22;19390;51.460;5.710;2023-05-16T02:01:30;8.60;99.90
33023;DHT22;19390;51.460;5.710;2023-05-16T02:03:57;8.50;99.90
33023;DHT22;19390;51.460;5.710;2023-05-16T02:06:23;8.50;99.90
33023;DHT22;19390;51.460;5.710;2023-05-16T02:08:50;8.40;99.90
33023;DHT22;19390;51.460;5.710;2023-05-16T02:11:16;8.30;99.90
33023;DHT22;19390;51.460;5.710;2023-05-16T02:13:41;8.30;99.90
33023;DHT22;19390;51.460;5.710;2023-05-16T02:16:09;8.30;99.90
33023;DHT22;19390;51.460;5.710;2023-05-16T02:18:35;8.20;99.90
33023;DHT22;19390;51.460;5.710;2023-05-16T02:21:01;8.10;99.90
33023;DHT22;19390;51.460;5.710;2023-05-16T02:23:26;8.10;99.90
33023;DHT22;19390;51.460;5.710;2023-05-16T02:25:52;8.10;99.90
33023;DHT22;19390;51.460;5.710;2023-05-16T02:28:17;8.00;99.90
33023;DHT22;19390;51.460;5.710;2023-05-16T02:30:43;7.90;99.90
33023;DHT22;19390;51.460;5.710;2023-05-16T02:33:09;8.00;99.90
33023;DHT22;19390;51.460;5.710;2023-05-16T02:35:35;8.00;99.90
33023;DHT22;19390;51.460;5.710;2023-05-16T02:38:00;7.90;99.90
33023;DHT22;19390;51.460;5.710;2023-05-16T02:40:26;7.80;99.90
33023;DHT22;19390;51.460;5.710;2023-05-16T02:42:52;7.80;99.90
33023;DHT22;19390;51.460;5.710;2023-05-16T02:45:17;7.80;99.90
33023;DHT22;19390;51.460;5.710;2023-05-16T02:47:43;7.70;99.90
33023;DHT22;19390;51.460;5.710;2023-05-16T02:50:09;7.70;99.90
33023;DHT22;19390;51.460;5.710;2023-05-16T02:52:35;7.60;99.90
33023;DHT22;19390;51.460;5.710;2023-05-16T02:55:00;7.60;99.90
33023;DHT22;19390;51.460;5.710;2023-05-16T02:57:26;7.60;99.90
33023;DHT22;19390;51.460;5.710;2023-05-16T02:59:52;7.60;99.90
33023;DHT22;19390;51.460;5.710;2023-05-16T03:02:17;7.60;99.90
33023;DHT22;19390;51.460;5.710;2023-05-16T03:04:43;7.70;99.90
33023;DHT22;19390;51.460;5.710;2023-05-16T03:07:09;7.60;99.90
33023;DHT22;19390;51.460;5.710;2023-05-16T03:09:34;7.60;99.90
33023;DHT22;19390;51.460;5.710;2023-05-16T03:12:00;7.70;99.90
33023;DHT22;19390;51.460;5.710;2023-05-16T03:14:25;7.60;99.90
33023;DHT22;19390;51.460;5.710;2023-05-16T03:16:51;7.60;99.90
33023;DHT22;19390;51.460;5.710;2023-05-16T03:19:17;7.60;99.90
33023;DHT22;19390;51.460;5.710;2023-05-16T03:21:42;7.70;99.90
33023;DHT22;19390;51.460;5.710;2023-05-16T03:24:08;7.80;99.90
33023;DHT22;19390;51.460;5.710;2023-05-16T03:26:34;7.80;99.90
33023;DHT22;19390;51.460;5.710;2023-05-16T03:28:59;7.90;99.90
33023;DHT22;19390;51.460;5.710;2023-05-16T03:31:25;7.90;99.90
33023;DHT22;19390;51.460;5.710;2023-05-16T03:33:50;8.00;99.90
33023;DHT22;19390;51.460;5.710;2023-05-16T03:36:16;8.00;99.90
33023;DHT22;19390;51.460;5.710;2023-05-16T03:38:42;8.00;99.90
33023;DHT22;19390;51.460;5.710;2023-05-16T03:41:07;8.00;99.90
33023;DHT22;19390;51.460;5.710;2023-05-16T03:43:33;8.00;99.90
33023;DHT22;19390;51.460;5.710;2023-05-16T03:46:00;8.00;99.90
33023;DHT22;19390;51.460;5.710;2023-05-16T03:48:26;8.00;99.90
33023;DHT22;19390;51.460;5.710;2023-05-16T03:50:51;7.90;99.90
33023;DHT22;19390;51.460;5.710;2023-05-16T03:53:17;7.90;99.90
33023;DHT22;19390;51.460;5.710;2023-05-16T03:55:43;7.90;99.90
33023;DHT22;19390;51.460;5.710;2023-05-16T03:58:08;7.90;99.90
33023;DHT22;19390;51.460;5.710;2023-05-16T04:00:34;7.80;99.90
33023;DHT22;19390;51.460;5.710;2023-05-16T04:03:01;7.80;99.90
33023;DHT22;19390;51.460;5.710;2023-05-16T04:05:26;7.70;99.90
33023;DHT22;19390;51.460;5.710;2023-05-16T04:07:53;7.80;99.90
33023;DHT22;19390;51.460;5.710;2023-05-16T04:10:19;7.80;99.90
33023;DHT22;19390;51.460;5.710;2023-05-16T04:12:44;7.70;99.90
33023;DHT22;19390;51.460;5.710;2023-05-16T04:15:10;7.60;99.90
33023;DHT22;19390;51.460;5.710;2023-05-16T04:17:36;7.50;99.90
33023;DHT22;19390;51.460;5.710;2023-05-16T04:20:01;7.60;99.90
33023;DHT22;19390;51.460;5.710;2023-05-16T04:22:28;7.60;99.90
33023;DHT22;19390;51.460;5.710;2023-05-16T04:24:54;7.60;99.90
33023;DHT22;19390;51.460;5.710;2023-05-16T04:27:20;7.60;99.90
33023;DHT22;19390;51.460;5.710;2023-05-16T04:29:45;7.60;99.90
33023;DHT22;19390;51.460;5.710;2023-05-16T04:32:11;7.50;99.90
33023;DHT22;19390;51.460;5.710;2023-05-16T04:34:36;7.50;99.90
33023;DHT22;19390;51.460;5.710;2023-05-16T04:37:03;7.60;99.90
33023;DHT22;19390;51.460;5.710;2023-05-16T04:39:30;7.60;99.90
33023;DHT22;19390;51.460;5.710;2023-05-16T04:41:55;7.60;99.90
33023;DHT22;19390;51.460;5.710;2023-05-16T04:44:24;7.50;99.90
33023;DHT22;19390;51.460;5.710;2023-05-16T04:46:50;7.60;99.90
33023;DHT22;19390;51.460;5.710;2023-05-16T04:49:17;7.60;99.90
33023;DHT22;19390;51.460;5.710;2023-05-16T04:51:42;7.70;99.90
33023;DHT22;19390;51.460;5.710;2023-05-16T04:54:09;7.80;99.90
33023;DHT22;19390;51.460;5.710;2023-05-16T04:56:35;8.50;99.90
33023;DHT22;19390;51.460;5.710;2023-05-16T04:59:00;9.80;99.90
33023;DHT22;19390;51.460;5.710;2023-05-16T05:01:27;10.80;99.90
33023;DHT22;19390;51.460;5.710;2023-05-16T05:03:52;11.70;99.90
33023;DHT22;19390;51.460;5.710;2023-05-16T05:06:18;12.00;99.90
33023;DHT22;19390;51.460;5.710;2023-05-16T05:08:43;12.00;99.90
33023;DHT22;19390;51.460;5.710;2023-05-16T05:11:09;13.40;99.90
33023;DHT22;19390;51.460;5.710;2023-05-16T05:13:35;13.80;99.90
33023;DHT22;19390;51.460;5.710;2023-05-16T05:16:01;14.20;99.90
33023;DHT22;19390;51.460;5.710;2023-05-16T05:18:29;14.70;99.90
33023;DHT22;19390;51.460;5.710;2023-05-16T05:20:55;14.90;99.90
33023;DHT22;19390;51.460;5.710;2023-05-16T05:23:20;14.80;99.90
33023;DHT22;19390;51.460;5.710;2023-05-16T05:25:46;15.00;99.90
33023;DHT22;19390;51.460;5.710;2023-05-16T05:28:11;15.10;99.90
33023;DHT22;19390;51.460;5.710;2023-05-16T05:30:37;14.20;99.90
33023;DHT22;19390;51.460;5.710;2023-05-16T05:33:03;15.70;99.90
33023;DHT22;19390;51.460;5.710;2023-05-16T05:35:28;16.10;99.90
33023;DHT22;19390;51.460;5.710;2023-05-16T05:37:54;16.20;99.90
33023;DHT22;19390;51.460;5.710;2023-05-16T05:40:20;17.50;99.90
33023;DHT22;19390;51.460;5.710;2023-05-16T05:42:45;16.50;99.90
33023;DHT22;19390;51.460;5.710;2023-05-16T05:45:11;16.90;99.90
33023;DHT22;19390;51.460;5.710;2023-05-16T05:47:36;16.90;99.90
33023;DHT22;19390;51.460;5.710;2023-05-16T05:50:03;16.80;99.90
33023;DHT22;19390;51.460;5.710;2023-05-16T05:52:29;17.00;99.90
33023;DHT22;19390;51.460;5.710;2023-05-16T05:54:54;16.80;99.90
33023;DHT22;19390;51.460;5.710;2023-05-16T05:57:20;17.10;99.90
33023;DHT22;19390;51.460;5.710;2023-05-16T05:59:46;16.60;99.90
33023;DHT22;19390;51.460;5.710;2023-05-16T06:02:12;17.60;99.90
33023;DHT22;19390;51.460;5.710;2023-05-16T06:04:38;16.60;99.90
33023;DHT22;19390;51.460;5.710;2023-05-16T06:07:04;17.40;99.90
33023;DHT22;19390;51.460;5.710;2023-05-16T06:09:29;17.00;99.90
33023;DHT22;19390;51.460;5.710;2023-05-16T06:11:55;18.30;99.90
33023;DHT22;19390;51.460;5.710;2023-05-16T06:14:21;17.80;99.90
33023;DHT22;19390;51.460;5.710;2023-05-16T06:16:46;18.80;99.90
33023;DHT22;19390;51.460;5.710;2023-05-16T06:19:12;19.30;99.90
33023;DHT22;19390;51.460;5.710;2023-05-16T06:21:40;19.10;99.90
33023;DHT22;19390;51.460;5.710;2023-05-16T06:24:06;18.60;99.90
33023;DHT22;19390;51.460;5.710;2023-05-16T06:26:32;18.00;99.90
33023;DHT22;19390;51.460;5.710;2023-05-16T06:28:58;18.60;99.90
33023;DHT22;19390;51.460;5.710;2023-05-16T06:31:23;18.90;99.90
33023;DHT22;19390;51.460;5.710;2023-05-16T06:33:49;20.60;99.90
33023;DHT22;19390;51.460;5.710;2023-05-16T06:36:14;19.10;99.90
33023;DHT22;19390;51.460;5.710;2023-05-16T06:38:40;18.10;99.90
33023;DHT22;19390;51.460;5.710;2023-05-16T06:41:06;17.90;99.90
33023;DHT22;19390;51.460;5.710;2023-05-16T06:43:31;18.60;99.90
33023;DHT22;19390;51.460;5.710;2023-05-16T06:45:57;19.00;99.90
33023;DHT22;19390;51.460;5.710;2023-05-16T06:48:23;20.70;99.90
33023;DHT22;19390;51.460;5.710;2023-05-16T06:50:49;18.10;99.90
33023;DHT22;19390;51.460;5.710;2023-05-16T06:53:16;17.60;99.90
33023;DHT22;19390;51.460;5.710;2023-05-16T06:55:42;17.10;99.90
33023;DHT22;19390;51.460;5.710;2023-05-16T06:58:09;16.70;99.90
33023;DHT22;19390;51.460;5.710;2023-05-16T07:00:34;15.80;99.90
33023;DHT22;19390;51.460;5.710;2023-05-16T07:03:01;16.20;99.90
33023;DHT22;19390;51.460;5.710;2023-05-16T07:05:28;15.90;99.90
33023;DHT22;19390;51.460;5.710;2023-05-16T07:07:54;19.80;99.90
33023;DHT22;19390;51.460;5.710;2023-05-16T07:10:20;20.40;99.90
33023;DHT22;19390;51.460;5.710;2023-05-16T07:12:45;20.90;99.90
33023;DHT22;19390;51.460;5.710;2023-05-16T07:15:11;21.40;99.90
33023;DHT22;19390;51.460;5.710;2023-05-16T07:17:37;20.60;99.90
33023;DHT22;19390;51.460;5.710;2023-05-16T07:20:03;21.40;99.90
33023;DHT22;19390;51.460;5.710;2023-05-16T07:22:29;21.30;99.90
33023;DHT22;19390;51.460;5.710;2023-05-16T07:24:55;21.50;99.90
33023;DHT22;19390;51.460;5.710;2023-05-16T07:27:25;22.40;99.90
33023;DHT22;19390;51.460;5.710;2023-05-16T07:29:50;19.60;99.90
33023;DHT22;19390;51.460;5.710;2023-05-16T07:32:16;16.80;99.90
33023;DHT22;19390;51.460;5.710;2023-05-16T07:34:42;14.70;99.90
33023;DHT22;19390;51.460;5.710;2023-05-16T07:37:08;15.80;99.90
33023;DHT22;19390;51.460;5.710;2023-05-16T07:39:40;17.40;99.90
33023;DHT22;19390;51.460;5.710;2023-05-16T07:42:06;16.90;99.90
33023;DHT22;19390;51.460;5.710;2023-05-16T07:44:32;16.80;99.90
33023;DHT22;19390;51.460;5.710;2023-05-16T07:46:58;15.50;99.90
33023;DHT22;19390;51.460;5.710;2023-05-16T07:49:24;16.30;99.90
33023;DHT22;19390;51.460;5.710;2023-05-16T07:51:49;18.30;99.90
33023;DHT22;19390;51.460;5.710;2023-05-16T07:54:15;15.50;99.90
33023;DHT22;19390;51.460;5.710;2023-05-16T07:56:40;19.10;99.90
33023;DHT22;19390;51.460;5.710;2023-05-16T07:59:06;23.60;99.90
33023;DHT22;19390;51.460;5.710;2023-05-16T08:01:32;21.70;99.90
33023;DHT22;19390;51.460;5.710;2023-05-16T08:03:57;23.50;99.90
33023;DHT22;19390;51.460;5.710;2023-05-16T08:06:23;22.50;99.90
33023;DHT22;19390;51.460;5.710;2023-05-16T08:08:49;21.80;99.90
33023;DHT22;19390;51.460;5.710;2023-05-16T08:11:15;22.50;99.90
33023;DHT22;19390;51.460;5.710;2023-05-16T08:13:41;23.60;99.90
33023;DHT22;19390;51.460;5.710;2023-05-16T08:16:06;20.70;99.90
33023;DHT22;19390;51.460;5.710;2023-05-16T08:18:32;17.30;99.90
33023;DHT22;19390;51.460;5.710;2023-05-16T08:20:58;19.20;99.90
33023;DHT22;19390;51.460;5.710;2023-05-16T08:23:23;20.10;99.90
33023;DHT22;19390;51.460;5.710;2023-05-16T08:25:49;22.40;99.90
33023;DHT22;19390;51.460;5.710;2023-05-16T08:28:14;24.10;99.90
33023;DHT22;19390;51.460;5.710;2023-05-16T08:30:40;22.80;99.90
33023;DHT22;19390;51.460;5.710;2023-05-16T08:33:06;19.90;99.90
33023;DHT22;19390;51.460;5.710;2023-05-16T08:35:32;18.30;99.90
33023;DHT22;19390;51.460;5.710;2023-05-16T08:37:59;16.50;99.90
33023;DHT22;19390;51.460;5.710;2023-05-16T10:11:05;24.70;99.90
33023;DHT22;19390;51.460;5.710;2023-05-16T10:13:33;20.60;99.90
33023;DHT22;19390;51.460;5.710;2023-05-16T10:16:05;19.10;99.90
33023;DHT22;19390;51.460;5.710;2023-05-16T10:18:32;18.60;99.90
33023;DHT22;19390;51.460;5.710;2023-05-16T10:21:07;18.10;99.90
33023;DHT22;19390;51.460;5.710;2023-05-16T10:23:35;17.10;99.90
33023;DHT22;19390;51.460;5.710;2023-05-16T10:26:03;16.60;99.90
33023;DHT22;19390;51.460;5.710;2023-05-16T10:28:30;16.30;99.90
33023;DHT22;19390;51.460;5.710;2023-05-16T10:30:56;16.30;99.90
33023;DHT22;19390;51.460;5.710;2023-05-16T10:33:23;16.10;99.90
33023;DHT22;19390;51.460;5.710;2023-05-16T10:35:49;16.40;99.90
33023;DHT22;19390;51.460;5.710;2023-05-16T10:38:16;19.10;99.90
33023;DHT22;19390;51.460;5.710;2023-05-16T10:40:42;20.80;99.90
33023;DHT22;19390;51.460;5.710;2023-05-16T10:43:09;23.40;99.90
33023;DHT22;19390;51.460;5.710;2023-05-16T10:45:39;25.10;99.90
33023;DHT22;19390;51.460;5.710;2023-05-16T10:48:06;25.00;99.90
33023;DHT22;19390;51.460;5.710;2023-05-16T10:55:39;24.90;99.90
33023;DHT22;19390;51.460;5.710;2023-05-16T10:58:04;24.30;99.90
33023;DHT22;19390;51.460;5.710;2023-05-16T11:00:30;23.80;99.90
33023;DHT22;19390;51.460;5.710;2023-05-16T11:03:05;21.80;99.90
33023;DHT22;19390;51.460;5.710;2023-05-16T11:05:31;20.00;99.90
33023;DHT22;19390;51.460;5.710;2023-05-16T11:08:06;18.70;99.90
33023;DHT22;19390;51.460;5.710;2023-05-16T11:10:33;19.60;99.90
33023;DHT22;19390;51.460;5.710;2023-05-16T11:13:06;19.40;99.90
33023;DHT22;19390;51.460;5.710;2023-05-16T11:15:32;18.30;99.90
33023;DHT22;19390;51.460;5.710;2023-05-16T11:18:17;18.20;99.90
33023;DHT22;19390;51.460;5.710;2023-05-16T11:20:43;17.80;99.90
33023;DHT22;19390;51.460;5.710;2023-05-16T11:25:45;21.70;99.90
33023;DHT22;19390;51.460;5.710;2023-05-16T11:28:12;22.70;99.90
33023;DHT22;19390;51.460;5.710;2023-05-16T11:30:48;21.70;99.90
33023;DHT22;19390;51.460;5.710;2023-05-16T11:33:14;21.20;99.90
33023;DHT22;19390;51.460;5.710;2023-05-16T11:35:41;23.00;99.90
33023;DHT22;19390;51.460;5.710;2023-05-16T11:38:15;24.10;99.90
33023;DHT22;19390;51.460;5.710;2023-05-16T11:40:42;22.50;99.90
33023;DHT22;19390;51.460;5.710;2023-05-16T11:43:08;23.30;99.90
33023;DHT22;19390;51.460;5.710;2023-05-16T11:45:35;21.00;99.90
33023;DHT22;19390;51.460;5.710;2023-05-16T11:48:02;20.00;99.90
33023;DHT22;19390;51.460;5.710;2023-05-16T11:50:33;18.40;99.90
33023;DHT22;19390;51.460;5.710;2023-05-16T11:52:59;18.80;99.90
33023;DHT22;19390;51.460;5.710;2023-05-16T11:55:27;17.70;99.90
33023;DHT22;19390;51.460;5.710;2023-05-16T11:57:58;17.70;99.90
33023;DHT22;19390;51.460;5.710;2023-05-16T12:00:25;18.20;99.90
33023;DHT22;19390;51.460;5.710;2023-05-16T12:02:53;18.90;99.90
33023;DHT22;19390;51.460;5.710;2023-05-16T12:05:20;20.10;99.90
33023;DHT22;19390;51.460;5.710;2023-05-16T12:07:50;21.10;99.90
33023;DHT22;19390;51.460;5.710;2023-05-16T12:10:18;21.00;99.90
33023;DHT22;19390;51.460;5.710;2023-05-16T12:12:46;21.10;99.90
33023;DHT22;19390;51.460;5.710;2023-05-16T12:15:12;20.90;99.90
33023;DHT22;19390;51.460;5.710;2023-05-16T12:17:39;20.30;99.90
33023;DHT22;19390;51.460;5.710;2023-05-16T12:20:07;19.90;99.90
33023;DHT22;19390;51.460;5.710;2023-05-16T12:22:40;19.00;99.90
33023;DHT22;19390;51.460;5.710;2023-05-16T12:25:28;18.80;99.90
33023;DHT22;19390;51.460;5.710;2023-05-16T12:28:00;20.60;99.90
33023;DHT22;19390;51.460;5.710;2023-05-16T12:30:27;20.10;99.90
33023;DHT22;19390;51.460;5.710;2023-05-16T12:33:00;20.60;99.90
33023;DHT22;19390;51.460;5.710;2023-05-16T12:35:30;19.70;99.90
33023;DHT22;19390;51.460;5.710;2023-05-16T12:37:56;19.10;99.90
33023;DHT22;19390;51.460;5.710;2023-05-16T12:40:22;18.00;99.90
33023;DHT22;19390;51.460;5.710;2023-05-16T12:42:52;17.40;99.90
33023;DHT22;19390;51.460;5.710;2023-05-16T12:45:18;16.90;99.90
33023;DHT22;19390;51.460;5.710;2023-05-16T12:47:44;17.40;99.90
33023;DHT22;19390;51.460;5.710;2023-05-16T12:50:14;17.60;99.90
33023;DHT22;19390;51.460;5.710;2023-05-16T12:52:53;19.40;99.90
33023;DHT22;19390;51.460;5.710;2023-05-16T12:55:20;20.80;99.90
33023;DHT22;19390;51.460;5.710;2023-05-16T12:57:47;19.60;99.90
33023;DHT22;19390;51.460;5.710;2023-05-16T13:00:15;18.00;99.90
33023;DHT22;19390;51.460;5.710;2023-05-16T13:02:41;17.20;99.90
33023;DHT22;19390;51.460;5.710;2023-05-16T13:05:07;17.40;99.90
33023;DHT22;19390;51.460;5.710;2023-05-16T13:07:33;17.10;99.90
33023;DHT22;19390;51.460;5.710;2023-05-16T13:09:59;16.70;99.90
33023;DHT22;19390;51.460;5.710;2023-05-16T13:12:25;16.60;99.90
33023;DHT22;19390;51.460;5.710;2023-05-16T13:14:54;16.40;99.90
33023;DHT22;19390;51.460;5.710;2023-05-16T13:17:20;16.00;99.90
33023;DHT22;19390;51.460;5.710;2023-05-16T13:19:46;16.30;99.90
33023;DHT22;19390;51.460;5.710;2023-05-16T13:22:11;16.50;99.90
33023;DHT22;19390;51.460;5.710;2023-05-16T13:24:37;16.40;99.90
33023;DHT22;19390;51.460;5.710;2023-05-16T13:27:03;16.30;99.90
33023;DHT22;19390;51.460;5.710;2023-05-16T13:29:28;16.50;99.90
33023;DHT22;19390;51.460;5.710;2023-05-16T13:31:54;16.00;99.90
33023;DHT22;19390;51.460;5.710;2023-05-16T13:34:19;16.40;99.90
33023;DHT22;19390;51.460;5.710;2023-05-16T13:36:45;16.70;99.90
33023;DHT22;19390;51.460;5.710;2023-05-16T13:39:12;16.10;99.90
33023;DHT22;19390;51.460;5.710;2023-05-16T13:41:37;16.50;99.90
33023;DHT22;19390;51.460;5.710;2023-05-16T13:44:05;16.30;99.90
33023;DHT22;19390;51.460;5.710;2023-05-16T13:46:30;16.10;99.90
33023;DHT22;19390;51.460;5.710;2023-05-16T13:48:56;15.70;99.90
33023;DHT22;19390;51.460;5.710;2023-05-16T13:51:22;16.00;99.90
33023;DHT22;19390;51.460;5.710;2023-05-16T13:53:47;16.10;99.90
33023;DHT22;19390;51.460;5.710;2023-05-16T13:56:13;16.20;99.90
33023;DHT22;19390;51.460;5.710;2023-05-16T13:58:39;16.40;99.90
33023;DHT22;19390;51.460;5.710;2023-05-16T14:01:04;16.60;99.90
33023;DHT22;19390;51.460;5.710;2023-05-16T14:03:30;16.80;99.90
33023;DHT22;19390;51.460;5.710;2023-05-16T14:05:56;17.30;99.90
33023;DHT22;19390;51.460;5.710;2023-05-16T14:08:22;18.40;99.90
33023;DHT22;19390;51.460;5.710;2023-05-16T14:10:47;18.90;99.90
33023;DHT22;19390;51.460;5.710;2023-05-16T14:13:13;17.80;99.90
33023;DHT22;19390;51.460;5.710;2023-05-16T14:15:38;18.00;99.90
33023;DHT22;19390;51.460;5.710;2023-05-16T14:18:05;17.40;99.90
33023;DHT22;19390;51.460;5.710;2023-05-16T14:20:30;16.70;99.90
33023;DHT22;19390;51.460;5.710;2023-05-16T14:22:56;16.40;99.90
33023;DHT22;19390;51.460;5.710;2023-05-16T14:25:21;16.30;99.90
33023;DHT22;19390;51.460;5.710;2023-05-16T14:27:47;15.70;99.90
33023;DHT22;19390;51.460;5.710;2023-05-16T14:30:15;16.00;99.90
33023;DHT22;19390;51.460;5.710;2023-05-16T14:32:41;15.50;99.90
33023;DHT22;19390;51.460;5.710;2023-05-16T14:35:07;14.90;99.90
33023;DHT22;19390;51.460;5.710;2023-05-16T14:37:34;15.20;99.90
33023;DHT22;19390;51.460;5.710;2023-05-16T14:39:59;15.20;99.90
33023;DHT22;19390;51.460;5.710;2023-05-16T14:42:25;15.10;99.90
33023;DHT22;19390;51.460;5.710;2023-05-16T14:44:51;15.30;99.90
33023;DHT22;19390;51.460;5.710;2023-05-16T14:47:16;15.40;99.90
33023;DHT22;19390;51.460;5.710;2023-05-16T14:49:42;15.00;99.90
33023;DHT22;19390;51.460;5.710;2023-05-16T14:52:07;15.40;99.90
33023;DHT22;19390;51.460;5.710;2023-05-16T14:54:33;15.60;99.90
33023;DHT22;19390;51.460;5.710;2023-05-16T14:56:59;15.70;99.90
33023;DHT22;19390;51.460;5.710;2023-05-16T14:59:26;15.50;99.90
33023;DHT22;19390;51.460;5.710;2023-05-16T15:01:51;15.60;99.90
33023;DHT22;19390;51.460;5.710;2023-05-16T15:04:17;15.50;99.90
33023;DHT22;19390;51.460;5.710;2023-05-16T15:06:42;15.60;99.90
33023;DHT22;19390;51.460;5.710;2023-05-16T15:09:08;15.70;99.90
33023;DHT22;19390;51.460;5.710;2023-05-16T15:11:34;16.20;99.90
33023;DHT22;19390;51.460;5.710;2023-05-16T15:13:59;16.10;99.90
33023;DHT22;19390;51.460;5.710;2023-05-16T15:16:26;15.60;99.90
33023;DHT22;19390;51.460;5.710;2023-05-16T15:18:51;15.70;99.90
33023;DHT22;19390;51.460;5.710;2023-05-16T15:21:17;15.90;99.90
33023;DHT22;19390;51.460;5.710;2023-05-16T15:23:43;15.80;99.90
33023;DHT22;19390;51.460;5.710;2023-05-16T15:26:09;15.90;99.90
33023;DHT22;19390;51.460;5.710;2023-05-16T15:28:35;16.30;99.90
33023;DHT22;19390;51.460;5.710;2023-05-16T15:31:02;16.10;99.90
33023;DHT22;19390;51.460;5.710;2023-05-16T15:33:28;15.70;99.90
33023;DHT22;19390;51.460;5.710;2023-05-16T15:35:54;15.90;99.90
33023;DHT22;19390;51.460;5.710;2023-05-16T15:38:20;16.10;99.90
33023;DHT22;19390;51.460;5.710;2023-05-16T15:40:46;15.40;99.90
33023;DHT22;19390;51.460;5.710;2023-05-16T15:43:11;15.10;99.90
33023;DHT22;19390;51.460;5.710;2023-05-16T15:45:37;15.30;99.90
33023;DHT22;19390;51.460;5.710;2023-05-16T15:48:02;15.20;99.90
33023;DHT22;19390;51.460;5.710;2023-05-16T15:50:28;15.00;99.90
33023;DHT22;19390;51.460;5.710;2023-05-16T15:52:54;15.10;99.90
33023;DHT22;19390;51.460;5.710;2023-05-16T15:55:22;14.90;99.90
33023;DHT22;19390;51.460;5.710;2023-05-16T15:57:48;15.40;99.90
33023;DHT22;19390;51.460;5.710;2023-05-16T16:00:14;15.60;99.90
33023;DHT22;19390;51.460;5.710;2023-05-16T16:02:40;15.80;99.90
33023;DHT22;19390;51.460;5.710;2023-05-16T16:05:07;15.40;99.90
33023;DHT22;19390;51.460;5.710;2023-05-16T16:07:32;15.60;99.90
33023;DHT22;19390;51.460;5.710;2023-05-16T16:09:58;15.40;99.90
33023;DHT22;19390;51.460;5.710;2023-05-16T16:12:23;15.50;99.90
33023;DHT22;19390;51.460;5.710;2023-05-16T16:14:49;15.80;99.90
33023;DHT22;19390;51.460;5.710;2023-05-16T16:17:16;15.80;99.90
33023;DHT22;19390;51.460;5.710;2023-05-16T16:19:42;15.60;99.90
33023;DHT22;19390;51.460;5.710;2023-05-16T16:22:07;15.60;99.90
33023;DHT22;19390;51.460;5.710;2023-05-16T16:24:33;15.70;99.90
33023;DHT22;19390;51.460;5.710;2023-05-16T16:26:58;15.20;99.90
33023;DHT22;19390;51.460;5.710;2023-05-16T16:29:24;15.20;99.90
33023;DHT22;19390;51.460;5.710;2023-05-16T16:31:50;15.30;99.90
33023;DHT22;19390;51.460;5.710;2023-05-16T16:34:17;15.40;99.90
33023;DHT22;19390;51.460;5.710;2023-05-16T16:36:43;15.50;99.90
33023;DHT22;19390;51.460;5.710;2023-05-16T16:39:08;15.10;99.90
33023;DHT22;19390;51.460;5.710;2023-05-16T16:41:34;14.70;99.90
33023;DHT22;19390;51.460;5.710;2023-05-16T16:44:00;14.90;99.90
33023;DHT22;19390;51.460;5.710;2023-05-16T16:46:26;14.90;99.90
33023;DHT22;19390;51.460;5.710;2023-05-16T16:48:51;14.90;99.90
33023;DHT22;19390;51.460;5.710;2023-05-16T16:51:19;15.00;99.90
33023;DHT22;19390;51.460;5.710;2023-05-16T16:53:45;14.60;99.90
33023;DHT22;19390;51.460;5.710;2023-05-16T16:56:11;14.80;99.90
33023;DHT22;19390;51.460;5.710;2023-05-16T16:58:37;15.00;99.90
33023;DHT22;19390;51.460;5.710;2023-05-16T17:01:03;14.80;99.90
33023;DHT22;19390;51.460;5.710;2023-05-16T17:03:29;14.70;99.90
33023;DHT22;19390;51.460;5.710;2023-05-16T17:05:54;14.80;99.90
33023;DHT22;19390;51.460;5.710;2023-05-16T17:08:20;14.60;99.90
33023;DHT22;19390;51.460;5.710;2023-05-16T17:10:46;14.70;99.90
33023;DHT22;19390;51.460;5.710;2023-05-16T17:13:12;14.70;99.90
33023;DHT22;19390;51.460;5.710;2023-05-16T17:15:39;14.80;99.90
33023;DHT22;19390;51.460;5.710;2023-05-16T17:18:05;14.90;99.90
33023;DHT22;19390;51.460;5.710;2023-05-16T17:20:32;15.00;99.90